Airfield :
LOGIN :

Register | Disclaimer

   EN    FR    IT 

 










Legend :    VFR   Marginal VFR   IFR   Intensive IFR   Very Intensive IFR
Visi :
Ceiling :
>= 8 km
>= 3000ft
5 to 8 km
1000 to 3000 ft
1500m to 5 km
500 to 1000 ft
800 to 1500m
200 to 500 ft
< 800m
< 200 ft
Symbols :   Thunderstorms  Fog  Heavy snow  Heavy precipitations  Wind > 20 kt
SIGMETs :     Misc.  Thunderstorms  Icing  Turbulence  Mountain Waves  Volcanic Ashes







- Airport Elevation : 83 ft
- IATA code : LHR
- Download approach charts


EGLL - London Heathrow

CURRENT METAR :
  • 210720Z VRB02KT 0300 R27R/P1500 R27L/P1500 FG VV/// 07/07 Q1028

EXPIRED METARs :
  • 210650Z 30001KT 1000 0600N R27R/P1500 R27L/P1500 BCFG FEW001 07/07 Q1028
  • 210620Z 22004KT 180V250 6000 1500W PRFG NSC 08/08 Q1028
  • 210550Z 20004KT 160V230 6000 FEW001 09/08 Q1028 TEMPO 1200 BR BKN002
  • 210520Z 18004KT 150V220 4000 BR NSC 08/08 Q1028 TEMPO 1200 BKN002
  • 210450Z 25003KT 3000 BR FEW001 08/08 Q1028 TEMPO 0600 FG BKN001

TAF TAF EGLL
Valid from the 21 at 06:00 until the 22 at 12:00 UTC


210454Z 2106/2212 25004KT 3000 BR MIFG FEW020
PROB40 2106/2109 0400 FG VV///
BECMG 2109/2112 9999 NSW
PROB30
TEMPO 2109/2111 BKN003
TEMPO 2119/2123 7000 -RA BKN012
BECMG 2120/2123 01010KT
No reported NOTAMs for that airfield.



MET'MAP, your aeronautical weather chart ! - Copyright ORBIFLY December 2007 - Disclaimer

ORBIFLY MET'MAP TEAM :

Programming & Development : Alexandra Zaïnal
Concept & Development : Baudouin d'Aumeries
Co-Development & Prog : Marc-Olivier Méhu
Technical & hardware support : Manuel Goepfert

Contact : metmap@orbifly.com




SOURCES & CREDITS :

   NOAA